West Duluth, Minnesota
Current Conditions -  °F | °C
As of 1:55 AM on Monday 24 Nov 2014 (Local Time) from KSUW Reporting Station
Moderate Rain Moderate Rain  
Wind Chill: 28°   Ceiling: 1400
Heat Index: 35°   Visibility: 7mi
Dew Point: 33°   Wind: 9mph
Humidity: 92%   Direction: 340°NNW
Pressure: 29.26"   Gusts: NA
Location:  46.7408°N, 92.1704°W
Report Text: KSUW 240755Z AUTO 34008KT 7SM RA OVC014 02/01 A2926 RMK AO2 T00180006
Loading
Personal Weather Stations






























Interactive Weather Map New forecast layout! Learn more

10-Day Weather Forecast

Advertisements
Track Severe Weather on mobile